createdAt,value
2018-03-18T00:01:39.724Z,68.42
2018-03-18T00:02:39.716Z,68.52
2018-03-18T00:04:35.648Z,68.04
2018-03-18T00:05:35.617Z,68.42
2018-03-18T00:07:31.526Z,68.52
2018-03-18T00:08:31.532Z,67.85
2018-03-18T00:10:27.454Z,68.04
2018-03-18T00:11:27.449Z,68.14
2018-03-18T00:13:23.891Z,68.23
2018-03-18T00:14:23.879Z,68.42
2018-03-18T00:16:18.340Z,68.14
2018-03-18T00:17:17.785Z,68.52
2018-03-18T00:19:13.659Z,68.23
2018-03-18T00:20:13.651Z,68.52
2018-03-18T00:22:09.580Z,68.42
2018-03-18T00:23:10.526Z,68.27
2018-03-18T00:25:06.004Z,68.27
2018-03-18T00:26:05.467Z,68.08
2018-03-18T00:27:59.905Z,68.14
2018-03-18T00:29:00.414Z,67.95
2018-03-18T00:30:56.323Z,67.98
2018-03-18T00:31:57.320Z,67.85
2018-03-18T00:33:51.761Z,67.76
2018-03-18T00:34:52.262Z,67.95
2018-03-18T00:36:46.663Z,68.04
2018-03-18T00:37:47.668Z,67.85
2018-03-18T00:39:40.530Z,68.14
2018-03-18T00:40:41.072Z,67.76
2018-03-18T00:42:36.442Z,68.14
2018-03-18T00:43:36.421Z,68.52
2018-03-18T00:45:30.829Z,68.61
2018-03-18T00:46:32.370Z,68.08
2018-03-18T00:48:27.290Z,68.55
2018-03-18T00:49:27.267Z,68.08
2018-03-18T00:51:21.752Z,68.55
2018-03-18T00:52:21.664Z,68.65
2018-03-18T00:54:17.065Z,68.55
2018-03-18T00:55:17.012Z,68.55
2018-03-18T00:57:12.928Z,68.27
2018-03-18T00:58:13.455Z,67.98
2018-03-18T01:00:08.843Z,68.14
2018-03-18T01:01:08.825Z,68.46
2018-03-18T01:03:05.265Z,68.42
2018-03-18T01:04:05.287Z,68.36
2018-03-18T01:06:01.682Z,68.46
2018-03-18T01:07:01.183Z,68.08
2018-03-18T01:08:56.534Z,68.46
2018-03-18T01:09:56.520Z,68.55
2018-03-18T01:11:50.976Z,68.65
2018-03-18T01:12:50.920Z,68.55
2018-03-18T01:14:46.847Z,68.17
2018-03-18T01:15:46.836Z,68.27
2018-03-18T01:17:43.786Z,68.27
2018-03-18T01:18:43.290Z,68.17
2018-03-18T01:20:39.685Z,68.08
2018-03-18T01:21:39.182Z,68.17
2018-03-18T01:23:35.091Z,68.27
2018-03-18T01:24:34.559Z,68.55
2018-03-18T01:26:30.505Z,67.89
2018-03-18T01:27:30.499Z,68.04
2018-03-18T01:29:26.397Z,68.42
2018-03-18T01:30:26.395Z,67.98
2018-03-18T01:32:20.818Z,68.08
2018-03-18T01:33:20.794Z,68.36
2018-03-18T01:35:15.272Z,68.42
2018-03-18T01:36:15.219Z,68.27
2018-03-18T01:38:09.668Z,68.55
2018-03-18T01:39:09.654Z,67.98
2018-03-18T01:41:05.088Z,68.17
2018-03-18T01:42:04.046Z,67.79
2018-03-18T01:43:58.983Z,67.89
2018-03-18T01:44:58.470Z,68.14
2018-03-18T01:46:54.420Z,67.85
2018-03-18T01:47:54.373Z,68.17
2018-03-18T01:49:49.316Z,68.46
2018-03-18T01:50:49.322Z,68.36
2018-03-18T01:52:43.731Z,68.55
2018-03-18T01:53:43.198Z,68.55
2018-03-18T01:55:39.055Z,68.36
2018-03-18T01:56:37.626Z,68.46
2018-03-18T01:58:32.067Z,68.36
2018-03-18T01:59:31.974Z,68.46
2018-03-18T02:01:27.919Z,68.55
2018-03-18T02:02:27.884Z,69.21
2018-03-18T02:04:22.316Z,69.02
2018-03-18T02:05:22.833Z,68.65
2018-03-18T02:07:18.279Z,68.33
2018-03-18T02:08:18.262Z,68.42
2018-03-18T02:10:14.162Z,68.14
2018-03-18T02:11:14.692Z,68.23
2018-03-18T02:13:10.590Z,68.61
2018-03-18T02:14:10.060Z,69.18
2018-03-18T02:16:06.012Z,69.65
2018-03-18T02:17:05.958Z,69.37
2018-03-18T02:19:02.403Z,68.14
2018-03-18T02:20:01.850Z,68.23
2018-03-18T02:21:57.786Z,68.90
2018-03-18T02:22:57.748Z,68.23
2018-03-18T02:24:54.207Z,68.80
2018-03-18T02:25:54.210Z,68.90
2018-03-18T02:27:50.596Z,69.27
2018-03-18T02:28:49.577Z,68.71
2018-03-18T02:30:46.026Z,68.04
2018-03-18T02:31:45.487Z,68.23
2018-03-18T02:33:41.434Z,68.23
2018-03-18T02:34:41.410Z,68.14
2018-03-18T02:36:37.842Z,68.42
2018-03-18T02:37:37.848Z,68.52
2018-03-18T02:39:33.253Z,68.33
2018-03-18T02:40:33.234Z,68.33
2018-03-18T02:42:26.661Z,68.33
2018-03-18T02:43:26.643Z,68.71
2018-03-18T02:45:21.597Z,68.52
2018-03-18T02:46:21.056Z,68.42
2018-03-18T02:48:15.504Z,68.52
2018-03-18T02:49:14.522Z,68.04
2018-03-18T02:51:09.462Z,68.23
2018-03-18T02:52:08.932Z,67.57
2018-03-18T02:54:03.398Z,68.23
2018-03-18T02:55:03.352Z,68.04
2018-03-18T02:57:00.792Z,67.76
2018-03-18T02:57:59.276Z,68.14
2018-03-18T02:59:55.236Z,68.71
2018-03-18T03:00:55.190Z,68.14
2018-03-18T03:02:49.130Z,68.23
2018-03-18T03:03:48.608Z,68.04
2018-03-18T03:05:44.526Z,68.42
2018-03-18T03:06:44.524Z,67.47
2018-03-18T03:08:41.472Z,67.76
2018-03-18T03:09:40.425Z,67.66
2018-03-18T03:11:35.362Z,67.85
2018-03-18T03:12:34.819Z,67.66
2018-03-18T03:14:30.781Z,67.10
2018-03-18T03:15:30.736Z,67.10
2018-03-18T03:17:28.175Z,67.57
2018-03-18T03:18:26.647Z,67.29
2018-03-18T03:20:21.590Z,67.76
2018-03-18T03:21:21.580Z,67.66
2018-03-18T03:23:17.024Z,67.10
2018-03-18T03:24:16.986Z,67.10
2018-03-18T03:26:14.888Z,67.57
2018-03-18T03:27:15.435Z,67.38
2018-03-18T03:29:10.841Z,67.22
2018-03-18T03:30:11.337Z,67.76
2018-03-18T03:32:06.676Z,67.10
2018-03-18T03:33:06.675Z,66.91
2018-03-18T03:35:02.607Z,66.72
2018-03-18T03:36:02.578Z,66.63
2018-03-18T03:37:57.001Z,66.72
2018-03-18T03:38:56.982Z,67.22
2018-03-18T03:40:52.936Z,65.97
2018-03-18T03:41:53.432Z,66.25
2018-03-18T03:43:47.326Z,66.25
2018-03-18T03:44:47.858Z,66.25
2018-03-18T03:46:43.787Z,66.00
2018-03-18T03:47:43.232Z,65.91
2018-03-18T03:49:39.685Z,65.62
2018-03-18T03:50:39.139Z,65.11
2018-03-18T03:52:35.603Z,65.30
2018-03-18T03:53:35.055Z,65.40
2018-03-18T03:55:30.980Z,64.45
2018-03-18T03:56:30.971Z,64.64
2018-03-18T03:58:26.855Z,65.11
2018-03-18T03:59:26.865Z,64.83
2018-03-18T04:01:22.836Z,64.83
2018-03-18T04:02:22.755Z,64.73
2018-03-18T04:04:17.169Z,65.21
2018-03-18T04:05:17.700Z,65.02
2018-03-18T04:07:14.115Z,65.11
2018-03-18T04:08:13.101Z,65.11
2018-03-18T04:10:09.543Z,65.02
2018-03-18T04:11:09.006Z,65.02
2018-03-18T04:13:05.451Z,65.11
2018-03-18T04:14:04.913Z,65.11
2018-03-18T04:15:59.355Z,65.11
2018-03-18T04:16:58.862Z,64.73
2018-03-18T04:18:54.285Z,64.26
2018-03-18T04:19:54.217Z,64.36
2018-03-18T04:21:50.164Z,64.64
2018-03-18T04:22:50.668Z,64.26
2018-03-18T04:24:44.550Z,64.26
2018-03-18T04:25:45.066Z,63.98
2018-03-18T04:27:40.448Z,64.07
2018-03-18T04:28:40.431Z,64.36
2018-03-18T04:30:36.396Z,63.60
2018-03-18T04:31:36.332Z,63.89
2018-03-18T04:33:32.242Z,64.36
2018-03-18T04:34:32.796Z,64.26
2018-03-18T04:36:28.186Z,64.64
2018-03-18T04:37:28.171Z,64.92
2018-03-18T04:39:24.126Z,64.64
2018-03-18T04:40:24.606Z,64.92
2018-03-18T04:42:20.041Z,66.06
2018-03-18T04:43:19.990Z,67.19
2018-03-18T04:45:15.915Z,68.61
2018-03-18T04:46:15.916Z,69.56
2018-03-18T04:48:12.366Z,72.39
2018-03-18T04:49:12.351Z,72.96
2018-03-18T04:51:07.806Z,78.78
2018-03-18T04:52:07.851Z,81.23
2018-03-18T04:54:03.675Z,82.65
2018-03-18T04:55:04.206Z,83.40
2018-03-18T04:56:59.605Z,84.73
2018-03-18T04:57:58.080Z,84.82
2018-03-18T04:59:54.001Z,85.30
2018-03-18T05:00:53.992Z,85.77
2018-03-18T05:02:50.426Z,86.52
2018-03-18T05:03:50.415Z,86.52
2018-03-18T05:05:47.335Z,86.99
2018-03-18T05:06:45.829Z,87.18
2018-03-18T05:08:41.717Z,87.37
2018-03-18T05:09:42.271Z,86.52
2018-03-18T05:11:38.633Z,86.80
2018-03-18T05:12:37.598Z,86.90
2018-03-18T05:14:34.543Z,87.47
2018-03-18T05:15:33.521Z,87.28
2018-03-18T05:17:29.460Z,87.37
2018-03-18T05:18:29.439Z,87.75
2018-03-18T05:20:25.373Z,87.18
2018-03-18T05:21:25.357Z,87.56
2018-03-18T05:23:21.792Z,87.18
2018-03-18T05:24:21.260Z,87.28
2018-03-18T05:26:17.189Z,86.71
2018-03-18T05:27:18.621Z,87.47
2018-03-18T05:29:13.074Z,86.71
2018-03-18T05:30:13.047Z,86.15
2018-03-18T05:32:08.973Z,86.80
2018-03-18T05:33:09.486Z,87.18
2018-03-18T05:35:07.394Z,86.90
2018-03-18T05:36:06.864Z,86.33
2018-03-18T05:38:03.816Z,86.52
2018-03-18T05:39:02.761Z,86.33
2018-03-18T05:40:58.675Z,86.33
2018-03-18T05:41:59.208Z,85.96
2018-03-18T05:43:55.111Z,85.68
2018-03-18T05:44:54.585Z,85.77
2018-03-18T05:46:49.039Z,84.92
2018-03-18T05:47:48.968Z,84.45
2018-03-18T05:49:45.415Z,84.64
2018-03-18T05:50:45.205Z,83.88
2018-03-18T05:52:40.813Z,83.59
2018-03-18T05:53:40.802Z,84.16
2018-03-18T05:55:35.268Z,83.97
2018-03-18T05:56:35.213Z,83.78
2018-03-18T05:58:31.169Z,84.26
2018-03-18T05:59:31.116Z,83.97
2018-03-18T06:01:27.568Z,83.78
2018-03-18T06:02:27.537Z,83.59
2018-03-18T06:04:23.448Z,84.26
2018-03-18T06:05:22.925Z,83.12
2018-03-18T06:07:18.844Z,82.93
2018-03-18T06:08:18.815Z,83.40
2018-03-18T06:10:14.739Z,83.69
2018-03-18T06:11:14.735Z,83.40
2018-03-18T06:13:10.673Z,82.28
2018-03-18T06:14:10.645Z,81.04
2018-03-18T06:16:05.069Z,81.52
2018-03-18T06:17:05.077Z,81.33
2018-03-18T06:19:01.023Z,81.33
2018-03-18T06:20:00.931Z,81.14
2018-03-18T06:21:56.898Z,80.38
2018-03-18T06:22:57.396Z,79.91
2018-03-18T06:24:53.356Z,79.91
2018-03-18T06:25:52.754Z,80.48
2018-03-18T06:27:47.198Z,79.16
2018-03-18T06:28:47.172Z,79.35
2018-03-18T06:30:43.606Z,79.91
2018-03-18T06:31:43.094Z,79.44
2018-03-18T06:33:40.530Z,79.35
2018-03-18T06:34:39.555Z,80.38
2018-03-18T06:36:47.966Z,79.82
2018-03-18T06:37:48.441Z,80.10
2018-03-18T06:39:43.838Z,80.48
2018-03-18T06:40:44.349Z,80.38
2018-03-18T06:42:39.789Z,80.95
2018-03-18T06:43:40.266Z,81.42
2018-03-18T06:45:36.198Z,80.76
2018-03-18T06:46:35.630Z,81.33
2018-03-18T06:48:31.076Z,80.57
2018-03-18T06:49:30.570Z,80.57
2018-03-18T06:51:24.449Z,81.04
2018-03-18T06:52:24.447Z,81.61
2018-03-18T06:54:22.820Z,81.04
2018-03-18T06:55:20.881Z,80.29
2018-03-18T06:57:18.798Z,80.48
2018-03-18T06:58:18.275Z,81.33
2018-03-18T07:00:15.706Z,81.33
2018-03-18T07:01:14.172Z,81.33
2018-03-18T07:03:10.133Z,81.42
2018-03-18T07:04:10.118Z,81.14
2018-03-18T07:06:06.010Z,81.52
2018-03-18T07:07:05.997Z,81.52
2018-03-18T07:09:01.956Z,81.42
2018-03-18T07:10:02.366Z,81.14
2018-03-18T07:11:58.833Z,82.28
2018-03-18T07:12:59.249Z,82.46
2018-03-18T07:14:53.739Z,81.80
2018-03-18T07:15:53.708Z,81.52
2018-03-18T07:17:49.638Z,81.42
2018-03-18T07:18:49.619Z,81.80
2018-03-18T07:20:45.537Z,82.46
2018-03-18T07:21:45.513Z,82.18
2018-03-18T07:23:41.968Z,82.56
2018-03-18T07:24:41.957Z,81.90
2018-03-18T07:26:37.417Z,82.28
2018-03-18T07:27:37.349Z,82.37
2018-03-18T07:29:33.285Z,82.28
2018-03-18T07:30:33.814Z,82.37
2018-03-18T07:32:30.136Z,82.28
2018-03-18T07:33:29.176Z,83.03
2018-03-18T07:35:26.621Z,81.14
2018-03-18T07:36:25.077Z,81.33
2018-03-18T07:38:20.996Z,80.29
2018-03-18T07:39:21.037Z,80.48
2018-03-18T07:41:17.954Z,80.57
2018-03-18T07:42:17.444Z,80.29
2018-03-18T07:44:12.840Z,80.48
2018-03-18T07:45:12.792Z,80.05
2018-03-18T07:47:09.265Z,80.00
2018-03-18T07:48:08.714Z,80.52
2018-03-18T07:50:04.663Z,80.14
2018-03-18T07:51:04.615Z,80.14
2018-03-18T07:53:01.086Z,81.27
2018-03-18T07:54:00.515Z,80.14
2018-03-18T07:55:56.475Z,79.38
2018-03-18T07:56:56.970Z,80.43
2018-03-18T07:58:52.888Z,79.95
2018-03-18T07:59:52.868Z,80.24
2018-03-18T08:01:47.255Z,79.10
2018-03-18T08:02:46.757Z,78.53
2018-03-18T08:04:43.683Z,79.24
2018-03-18T08:05:42.636Z,78.25
2018-03-18T08:07:38.556Z,77.87
2018-03-18T08:08:38.586Z,77.21
2018-03-18T08:10:32.955Z,76.55
2018-03-18T08:11:33.494Z,76.64
2018-03-18T08:13:27.399Z,77.59
2018-03-18T08:14:27.388Z,77.69
2018-03-18T08:16:22.332Z,77.02
2018-03-18T08:17:21.814Z,76.55
2018-03-18T08:19:17.725Z,76.74
2018-03-18T08:20:17.707Z,76.45
2018-03-18T08:22:13.151Z,77.69
2018-03-18T08:23:12.121Z,76.26
2018-03-18T08:25:07.567Z,75.26
2018-03-18T08:26:06.548Z,75.45
2018-03-18T08:28:02.487Z,74.51
2018-03-18T08:29:00.976Z,74.79
2018-03-18T08:30:58.838Z,74.69
2018-03-18T08:31:56.879Z,74.32
2018-03-18T08:33:52.816Z,74.51
2018-03-18T08:34:52.811Z,74.41
2018-03-18T08:36:48.778Z,74.32
2018-03-18T08:37:48.741Z,74.32
2018-03-18T08:39:43.676Z,73.37
2018-03-18T08:40:43.678Z,72.71
2018-03-18T08:42:38.115Z,73.18
2018-03-18T08:43:37.565Z,72.71
2018-03-18T08:45:31.975Z,73.18
2018-03-18T08:46:31.998Z,73.28
2018-03-18T08:48:26.444Z,72.71
2018-03-18T08:49:26.918Z,72.80
2018-03-18T08:51:20.795Z,72.90
2018-03-18T08:52:22.331Z,71.77
2018-03-18T08:54:15.240Z,71.11
2018-03-18T08:55:15.202Z,70.82
2018-03-18T08:57:09.576Z,69.87
2018-03-18T08:58:08.605Z,69.59
2018-03-18T09:00:04.575Z,68.55
2018-03-18T09:01:05.066Z,68.74
2018-03-18T09:02:57.979Z,68.46
2018-03-18T09:03:58.473Z,68.21
2018-03-18T09:05:52.414Z,67.93
2018-03-18T09:06:52.374Z,66.69
2018-03-18T09:08:46.772Z,65.37
2018-03-18T09:09:47.339Z,65.66
2018-03-18T09:11:42.706Z,63.45
2018-03-18T09:12:42.682Z,64.99
2018-03-18T09:14:40.122Z,65.37
2018-03-18T09:15:38.619Z,65.75
2018-03-18T09:17:33.030Z,65.47
2018-03-18T09:18:33.029Z,65.18
2018-03-18T09:20:28.948Z,65.47
2018-03-18T09:21:28.939Z,65.09
2018-03-18T09:23:24.861Z,65.37
2018-03-18T09:24:24.866Z,67.17
2018-03-18T09:26:19.817Z,66.60
2018-03-18T09:27:19.804Z,67.07
2018-03-18T09:29:15.190Z,67.64
2018-03-18T09:30:15.190Z,67.17
2018-03-18T09:32:10.539Z,67.17
2018-03-18T09:33:09.576Z,65.66
2018-03-18T09:35:06.047Z,67.41
2018-03-18T09:36:06.449Z,68.46
2018-03-18T09:37:59.936Z,69.34
2018-03-18T09:39:00.459Z,68.12
2018-03-18T09:40:54.347Z,69.21
2018-03-18T09:41:54.896Z,69.21
2018-03-18T09:43:50.262Z,70.10
2018-03-18T09:44:50.776Z,69.72
2018-03-18T09:46:44.726Z,68.30
2018-03-18T09:47:45.190Z,68.12
2018-03-18T09:49:39.059Z,68.21
2018-03-18T09:50:39.071Z,66.41
2018-03-18T09:52:35.052Z,64.52
2018-03-18T09:53:34.988Z,63.67
2018-03-18T09:55:29.444Z,62.34
2018-03-18T09:56:29.417Z,63.42
2018-03-18T09:58:23.858Z,62.28
2018-03-18T09:59:23.791Z,60.77
2018-03-18T10:01:20.246Z,58.78
2018-03-18T10:02:19.785Z,58.11
2018-03-18T10:04:16.168Z,58.87
2018-03-18T10:05:16.147Z,58.21
2018-03-18T10:07:11.596Z,57.83
2018-03-18T10:08:11.567Z,58.78
2018-03-18T10:10:06.504Z,57.07
2018-03-18T10:11:05.969Z,57.07
2018-03-18T10:13:01.958Z,57.17
2018-03-18T10:14:02.450Z,57.64
2018-03-18T10:15:57.838Z,56.79
2018-03-18T10:16:57.831Z,56.41
2018-03-18T10:18:53.719Z,56.22
2018-03-18T10:19:54.280Z,57.73
2018-03-18T10:21:49.676Z,58.59
2018-03-18T10:22:49.639Z,58.11
2018-03-18T10:24:47.106Z,57.92
2018-03-18T10:25:46.083Z,57.17
2018-03-18T10:27:42.996Z,56.98
2018-03-18T10:28:42.007Z,57.54
2018-03-18T10:30:37.372Z,56.98
2018-03-18T10:31:38.906Z,57.64
2018-03-18T10:33:33.378Z,56.41
2018-03-18T10:34:33.315Z,56.41
2018-03-18T10:36:29.263Z,56.41
2018-03-18T10:37:29.776Z,56.70
2018-03-18T10:39:25.201Z,56.60
2018-03-18T10:40:25.671Z,57.07
2018-03-18T10:42:23.076Z,56.41
2018-03-18T10:43:23.077Z,56.34
2018-03-18T10:45:19.020Z,55.96
2018-03-18T10:46:18.987Z,55.77
2018-03-18T10:48:15.976Z,56.63
2018-03-18T10:49:14.957Z,56.63
2018-03-18T10:51:10.880Z,56.53
2018-03-18T10:52:10.895Z,56.06
2018-03-18T10:54:07.357Z,55.02
2018-03-18T10:55:06.836Z,55.96
2018-03-18T10:57:02.775Z,55.58
2018-03-18T10:58:02.753Z,56.06
2018-03-18T11:00:01.725Z,56.53
2018-03-18T11:01:01.207Z,56.63
2018-03-18T11:02:56.621Z,55.80
2018-03-18T11:03:56.617Z,56.18
2018-03-18T11:05:52.589Z,55.80
2018-03-18T11:06:52.565Z,55.90
2018-03-18T11:08:48.493Z,54.00
2018-03-18T11:09:48.450Z,54.28
2018-03-18T11:11:46.482Z,53.13
2018-03-18T11:12:46.495Z,53.88
2018-03-18T11:14:42.441Z,54.74
2018-03-18T11:15:42.440Z,55.40
2018-03-18T11:17:39.404Z,55.24
2018-03-18T11:18:38.365Z,54.74
2018-03-18T11:20:57.849Z,55.30
2018-03-18T11:21:34.281Z,54.16
2018-03-18T11:23:30.236Z,55.49
2018-03-18T11:24:30.217Z,55.02
2018-03-18T11:26:26.191Z,54.83
2018-03-18T11:27:26.127Z,54.55
2018-03-18T11:29:22.048Z,53.69
2018-03-18T11:30:22.088Z,53.78
2018-03-18T11:32:21.027Z,54.16
2018-03-18T11:33:20.124Z,53.95
2018-03-18T11:35:16.079Z,54.55
2018-03-18T11:36:16.039Z,55.02
2018-03-18T11:38:12.013Z,54.23
2018-03-18T11:39:13.496Z,54.99
2018-03-18T11:41:08.934Z,54.33
2018-03-18T11:42:08.850Z,54.52
2018-03-18T11:44:03.874Z,54.33
2018-03-18T11:45:03.863Z,54.80
2018-03-18T11:46:59.813Z,54.52
2018-03-18T11:47:59.789Z,54.71
2018-03-18T11:49:55.758Z,54.99
2018-03-18T11:50:55.700Z,53.95
2018-03-18T11:52:52.166Z,53.76
2018-03-18T11:53:52.157Z,53.47
2018-03-18T11:55:47.607Z,54.16
2018-03-18T11:56:47.556Z,53.78
2018-03-18T11:58:55.333Z,53.59
2018-03-18T11:59:55.243Z,53.41
2018-03-18T12:01:52.660Z,52.18
2018-03-18T12:02:51.142Z,53.03
2018-03-18T12:04:47.115Z,53.47
2018-03-18T12:05:47.057Z,53.09
2018-03-18T12:07:42.976Z,53.19
2018-03-18T12:08:44.535Z,53.19
2018-03-18T12:10:38.930Z,53.38
2018-03-18T12:11:38.922Z,53.38
2018-03-18T12:13:34.378Z,53.09
2018-03-18T12:14:34.335Z,53.19
2018-03-18T12:16:30.277Z,53.47
2018-03-18T12:17:30.281Z,53.69
2018-03-18T12:19:27.271Z,52.27
2018-03-18T12:20:27.211Z,52.08
2018-03-18T12:22:22.669Z,50.85
2018-03-18T12:23:22.686Z,51.20
2018-03-18T12:25:19.576Z,51.30
2018-03-18T12:26:18.072Z,51.11
2018-03-18T12:28:14.514Z,52.08
2018-03-18T12:29:14.010Z,51.99
2018-03-18T12:31:11.464Z,50.57
2018-03-18T12:32:11.453Z,50.95
2018-03-18T12:34:06.906Z,52.18
2018-03-18T12:35:07.386Z,50.95
2018-03-18T12:37:01.784Z,51.04
2018-03-18T12:38:01.775Z,50.19
2018-03-18T12:39:58.213Z,51.32
2018-03-18T12:40:57.686Z,50.76
2018-03-18T12:42:53.630Z,50.09
2018-03-18T12:43:53.622Z,49.05
2018-03-18T12:45:49.783Z,50.38
2018-03-18T12:46:49.816Z,49.90
2018-03-18T12:48:45.742Z,50.38
2018-03-18T12:49:45.690Z,49.62
2018-03-18T12:51:42.649Z,49.52
2018-03-18T12:52:41.606Z,49.24
2018-03-18T12:54:38.564Z,50.28
2018-03-18T12:55:37.519Z,50.28
2018-03-18T12:57:33.996Z,49.24
2018-03-18T12:58:33.967Z,49.05
2018-03-18T13:00:29.911Z,49.33
2018-03-18T13:01:30.887Z,49.33
2018-03-18T13:03:25.817Z,49.24
2018-03-18T13:04:25.286Z,49.08
2018-03-18T13:06:21.220Z,48.86
2018-03-18T13:07:21.203Z,48.29
2018-03-18T13:09:17.206Z,48.32
2018-03-18T13:10:17.089Z,49.36
2018-03-18T13:12:13.536Z,48.06
2018-03-18T13:13:13.004Z,47.30
2018-03-18T13:15:08.943Z,46.45
2018-03-18T13:16:08.935Z,45.97
2018-03-18T13:18:04.873Z,46.07
2018-03-18T13:19:05.368Z,46.16
2018-03-18T13:21:00.765Z,46.07
2018-03-18T13:22:00.780Z,45.86
2018-03-18T13:25:31.866Z,46.42
2018-03-18T13:26:31.341Z,46.90
2018-03-18T13:28:27.797Z,46.61
2018-03-18T13:29:27.253Z,46.45
2018-03-18T13:31:23.145Z,45.76
2018-03-18T13:32:23.184Z,46.26
2018-03-18T13:34:19.088Z,46.42
2018-03-18T13:35:19.605Z,46.33
2018-03-18T13:37:15.522Z,46.42
2018-03-18T13:38:16.525Z,46.23
2018-03-18T13:40:09.487Z,46.71
2018-03-18T13:41:09.464Z,46.90
2018-03-18T13:43:05.899Z,46.23
2018-03-18T13:44:05.398Z,47.09
2018-03-18T13:46:01.341Z,46.42
2018-03-18T13:47:01.318Z,46.80
2018-03-18T13:48:57.293Z,47.47
2018-03-18T13:49:57.238Z,47.28
2018-03-18T13:51:52.164Z,47.18
2018-03-18T13:52:51.638Z,47.18
2018-03-18T13:54:48.082Z,46.90
2018-03-18T13:55:47.591Z,46.80
2018-03-18T13:57:42.004Z,46.99
2018-03-18T13:58:42.005Z,47.28
2018-03-18T14:00:37.934Z,47.30
2018-03-18T14:01:37.947Z,46.99
2018-03-18T14:03:33.918Z,46.52
2018-03-18T14:04:33.870Z,46.92
2018-03-18T14:06:28.819Z,46.61
2018-03-18T14:07:28.277Z,46.42
2018-03-18T14:09:24.722Z,46.23
2018-03-18T14:10:24.196Z,46.33
2018-03-18T14:12:17.648Z,46.33
2018-03-18T14:13:17.625Z,47.11
2018-03-18T14:15:14.067Z,47.30
2018-03-18T14:16:13.542Z,47.02
2018-03-18T14:18:09.532Z,46.42
2018-03-18T14:19:09.980Z,46.33
2018-03-18T14:21:05.418Z,46.71
2018-03-18T14:22:05.393Z,46.99
2018-03-18T14:24:01.854Z,46.90
2018-03-18T14:25:01.307Z,47.28
2018-03-18T14:26:57.271Z,47.47
2018-03-18T14:27:57.230Z,47.09
2018-03-18T14:29:53.678Z,47.75
2018-03-18T14:30:53.165Z,48.13
2018-03-18T14:32:49.100Z,48.13
2018-03-18T14:33:49.076Z,48.13
2018-03-18T14:35:46.032Z,47.56
2018-03-18T14:36:45.519Z,47.18
2018-03-18T14:38:40.895Z,48.13
2018-03-18T14:39:40.874Z,47.75
2018-03-18T14:41:36.850Z,47.47
2018-03-18T14:42:36.807Z,47.18
2018-03-18T14:44:33.782Z,47.66
2018-03-18T14:45:33.266Z,47.56
2018-03-18T14:47:30.166Z,48.01
2018-03-18T14:48:28.660Z,47.44
2018-03-18T14:50:23.136Z,48.22
2018-03-18T14:51:23.119Z,48.22
2018-03-18T14:53:21.041Z,48.22
2018-03-18T14:54:19.046Z,48.60
2018-03-18T14:56:15.482Z,48.32
2018-03-18T14:57:15.469Z,48.13
2018-03-18T14:59:10.872Z,47.28
2018-03-18T15:00:11.386Z,46.90
2018-03-18T15:02:06.817Z,47.02
2018-03-18T15:03:06.793Z,46.83
2018-03-18T15:05:01.723Z,46.83
2018-03-18T15:06:01.200Z,47.11
2018-03-18T15:07:57.115Z,47.96
2018-03-18T15:08:57.119Z,47.30
2018-03-18T15:10:53.062Z,46.83
2018-03-18T15:11:53.993Z,46.64
2018-03-18T15:13:49.991Z,46.71
2018-03-18T15:14:48.974Z,46.92
2018-03-18T15:16:43.410Z,46.52
2018-03-18T15:17:43.922Z,46.23
2018-03-18T15:19:39.386Z,46.42
2018-03-18T15:20:39.860Z,46.52
2018-03-18T15:22:35.263Z,46.52
2018-03-18T15:23:35.263Z,46.52
2018-03-18T15:25:32.224Z,46.52
2018-03-18T15:26:31.200Z,46.33
2018-03-18T15:28:28.633Z,46.42
2018-03-18T15:29:27.118Z,46.33
2018-03-18T15:31:23.058Z,46.80
2018-03-18T15:32:23.541Z,46.14
2018-03-18T15:34:20.992Z,46.80
2018-03-18T15:35:19.489Z,47.09
2018-03-18T15:37:17.421Z,46.33
2018-03-18T15:38:17.015Z,46.80
2018-03-18T15:40:13.750Z,46.90
2018-03-18T15:41:12.926Z,46.42
2018-03-18T15:43:07.388Z,46.23
2018-03-18T15:44:07.350Z,46.52
2018-03-18T15:46:04.298Z,47.18
2018-03-18T15:47:03.307Z,46.80
2018-03-18T15:49:01.182Z,47.18
2018-03-18T15:50:01.731Z,47.09
2018-03-18T15:51:58.628Z,47.18
2018-03-18T15:52:58.637Z,47.28
2018-03-18T15:54:53.538Z,47.18
2018-03-18T15:55:53.543Z,47.28
2018-03-18T15:57:49.976Z,47.37
2018-03-18T15:58:48.962Z,47.28
2018-03-18T16:00:45.423Z,47.18
2018-03-18T16:01:46.449Z,46.99
2018-03-18T16:03:40.852Z,47.18
2018-03-18T16:04:42.333Z,47.28
2018-03-18T16:06:37.245Z,46.71
2018-03-18T16:07:36.733Z,46.33
2018-03-18T16:09:33.607Z,46.80
2018-03-18T16:10:33.174Z,46.90
2018-03-18T16:12:29.611Z,47.09
2018-03-18T16:13:28.563Z,46.80
2018-03-18T16:15:24.523Z,46.71
2018-03-18T16:16:25.024Z,46.71
2018-03-18T16:18:20.402Z,47.18
2018-03-18T16:19:20.377Z,46.90
2018-03-18T16:21:16.323Z,47.47
2018-03-18T16:22:16.294Z,46.90
2018-03-18T16:24:13.232Z,47.18
2018-03-18T16:25:13.256Z,47.28
2018-03-18T16:27:10.712Z,47.94
2018-03-18T16:28:10.163Z,48.22
2018-03-18T16:30:07.534Z,48.13
2018-03-18T16:31:06.079Z,47.85
2018-03-18T16:33:03.029Z,47.28
2018-03-18T16:34:01.992Z,46.99
2018-03-18T16:35:57.976Z,47.18
2018-03-18T16:36:57.922Z,46.90
2018-03-18T16:38:54.379Z,46.33
2018-03-18T16:39:53.843Z,46.80
2018-03-18T16:41:49.775Z,46.23
2018-03-18T16:42:50.266Z,46.04
2018-03-18T16:44:45.668Z,46.61
2018-03-18T16:45:45.656Z,47.37
2018-03-18T16:47:41.645Z,47.09
2018-03-18T16:48:42.557Z,47.09
2018-03-18T16:50:37.486Z,47.16
2018-03-18T16:51:37.481Z,46.88
2018-03-18T16:53:33.436Z,47.16
2018-03-18T16:54:33.940Z,47.25
2018-03-18T16:56:29.353Z,47.06
2018-03-18T16:57:29.350Z,47.44
2018-03-18T16:59:25.351Z,47.34
2018-03-18T17:00:25.787Z,47.44
2018-03-18T17:02:21.193Z,47.34
2018-03-18T17:03:21.220Z,47.16
2018-03-18T17:05:19.153Z,47.25
2018-03-18T17:06:19.112Z,47.91
2018-03-18T17:08:15.059Z,48.01
2018-03-18T17:09:16.099Z,48.10
2018-03-18T17:11:10.997Z,47.91
2018-03-18T17:12:11.004Z,48.20
2018-03-18T17:14:07.868Z,48.77
2018-03-18T17:15:06.896Z,48.77
2018-03-18T17:17:05.339Z,48.49
2018-03-18T17:18:04.837Z,48.39
2018-03-18T17:20:00.752Z,49.12
2018-03-18T17:21:00.732Z,48.36
2018-03-18T17:22:56.681Z,48.55
2018-03-18T17:23:56.645Z,48.55
2018-03-18T17:25:52.566Z,49.03
2018-03-18T17:26:53.512Z,48.84
2018-03-18T17:28:46.492Z,49.31
2018-03-18T17:29:45.966Z,49.41
2018-03-18T17:31:41.888Z,50.35
2018-03-18T17:32:41.881Z,50.16
2018-03-18T17:34:37.820Z,49.79
2018-03-18T17:35:37.776Z,49.31
2018-03-18T17:37:34.228Z,49.12
2018-03-18T17:38:34.216Z,49.69
2018-03-18T17:40:29.645Z,49.69
2018-03-18T17:41:29.611Z,49.69
2018-03-18T17:43:26.074Z,50.07
2018-03-18T17:44:25.513Z,49.98
2018-03-18T17:46:22.012Z,50.16
2018-03-18T17:47:21.460Z,50.35
2018-03-18T17:49:17.408Z,50.07
2018-03-18T17:50:17.334Z,50.16
2018-03-18T17:52:13.777Z,49.03
2018-03-18T17:53:13.245Z,49.22
2018-03-18T17:55:09.171Z,48.74
2018-03-18T17:56:09.157Z,48.18
2018-03-18T17:58:05.154Z,48.46
2018-03-18T17:59:05.094Z,48.74
2018-03-18T18:01:01.515Z,48.93
2018-03-18T18:02:01.003Z,48.36
2018-03-18T18:03:56.955Z,48.15
2018-03-18T18:04:57.450Z,48.15
2018-03-18T18:06:52.834Z,48.72
2018-03-18T18:07:52.818Z,48.25
2018-03-18T18:09:48.789Z,48.44
2018-03-18T18:10:48.762Z,48.15
2018-03-18T18:12:44.705Z,48.06
2018-03-18T18:13:45.199Z,48.06
2018-03-18T18:15:42.754Z,48.06
2018-03-18T18:16:42.744Z,48.06
2018-03-18T18:18:38.674Z,48.63
2018-03-18T18:19:38.633Z,48.72
2018-03-18T18:21:35.087Z,48.25
2018-03-18T18:22:34.549Z,49.01
2018-03-18T18:24:31.423Z,48.72
2018-03-18T18:25:31.000Z,49.01
2018-03-18T18:27:27.929Z,48.63
2018-03-18T18:28:26.396Z,48.15
2018-03-18T18:30:24.862Z,48.06
2018-03-18T18:31:26.258Z,47.96
2018-03-18T18:33:24.905Z,47.87
2018-03-18T18:34:24.882Z,48.06
2018-03-18T18:36:25.315Z,48.53
2018-03-18T18:37:25.288Z,48.53
2018-03-18T18:39:21.376Z,48.34
2018-03-18T18:40:21.381Z,48.91
2018-03-18T18:42:19.419Z,47.39
2018-03-18T18:43:19.429Z,47.77
2018-03-18T18:45:17.856Z,47.39
2018-03-18T18:46:17.429Z,47.68
2018-03-18T18:48:14.452Z,47.20
2018-03-18T18:49:13.380Z,47.77
2018-03-18T18:51:09.331Z,48.44
2018-03-18T18:52:09.282Z,47.96
2018-03-18T18:54:05.715Z,48.34